Auburn, Kentucky
Current Conditions -  °F | °C
As of 2:53 PM on Friday 19 Dec 2014 (Local Time) from KBWG Reporting Station
Clear Clear  
Wind Chill: 40°   Ceiling: Unl
Heat Index: 40°   Visibility: 10mi
Dew Point: 27°   Wind: 0mph
Humidity: 60%   Direction: NA
Pressure: 30.26"   Gusts: NA
Location:  36.86°N, 86.71°W
Report Text: KBWG 192053Z AUTO 00000KT 10SM CLR 04/M03 A3026 RMK AO2 SLP250 T00441028 56003
Loading
Personal Weather Stations






























Interactive Weather Map New forecast layout! Learn more

10-Day Weather Forecast

Advertisements
Track Severe Weather on mobile